Time;durP1;ratioP1;P1;durP2;ratioP2;P2;SDS_P1;SDS_P2;PMS_P1;PMS_P2;Temp;Humidity;BMP_temperature;BMP_pressure;BME280_temperature;BME280_humidity;BME280_pressure;Samples;Min_cycle;Max_cycle;Signal;HPM_P1;HPM_P2
2022/06/25 00:15:28;;;;;;;5.60;3.90;;;;;;;19.58;51.18;98135.89;432644;1271;111166;-43
2022/06/25 00:25:32;;;;;;;7.40;4.70;;;;;;;19.46;51.86;98135.31;432052;1273;98022;-42
2022/06/25 00:35:36;;;;;;;4.50;4.10;;;;;;;19.35;51.92;98139.55;432533;1271;97950;-43
2022/06/25 00:45:42;;;;;;;6.90;4.40;;;;;;;19.22;52.68;98137.29;432541;1271;97907;-42
2022/06/25 00:55:49;;;;;;;8.40;5.80;;;;;;;19.21;52.76;98127.72;432563;1271;108887;-43
2022/06/25 01:05:53;;;;;;;8.50;4.80;;;;;;;19.22;53.18;98127.52;433181;1260;97967;-42
2022/06/25 01:15:56;;;;;;;7.20;4.90;;;;;;;19.26;53.37;98124.44;432719;1270;111273;-43
2022/06/25 01:26:01;;;;;;;10.40;4.90;;;;;;;19.15;53.49;98128.02;432453;1270;98086;-43
2022/06/25 01:36:04;;;;;;;7.50;4.80;;;;;;;18.90;53.54;98128.44;432588;1270;96676;-44
2022/06/25 01:46:09;;;;;;;7.10;4.70;;;;;;;18.65;54.00;98126.30;432649;1270;110193;-42
2022/06/25 01:56:13;;;;;;;8.40;5.00;;;;;;;18.61;54.58;98130.32;432251;1270;283809;-43
2022/06/25 02:06:17;;;;;;;5.80;4.80;;;;;;;18.44;54.87;98140.88;432651;1270;98002;-42
2022/06/25 02:16:21;;;;;;;10.30;4.80;;;;;;;18.27;55.42;98148.17;432558;1270;97929;-43
2022/06/25 02:26:25;;;;;;;4.20;3.80;;;;;;;18.24;55.74;98154.41;432413;1270;109338;-42
2022/06/25 02:36:28;;;;;;;8.60;5.00;;;;;;;18.36;55.88;98156.15;432558;1270;96663;-43
2022/06/25 02:46:32;;;;;;;8.70;5.10;;;;;;;18.57;56.04;98156.58;432775;1270;97899;-42
2022/06/25 03:06:59;;;;;;;8.80;5.30;;;;;;;18.71;56.22;98161.17;432799;1270;97897;-43
2022/06/25 03:17:03;;;;;;;9.30;5.20;;;;;;;18.89;55.97;98158.99;432661;1270;98009;-42
2022/06/25 03:27:07;;;;;;;5.00;4.50;;;;;;;20.30;55.39;98165.77;432524;1270;109322;-42
2022/06/25 03:37:11;;;;;;;7.00;4.40;;;;;;;21.80;53.91;98171.33;432553;1271;97917;-43
2022/06/25 03:47:14;;;;;;;7.50;4.80;;;;;;;21.09;53.58;98165.87;432606;1270;96725;-44
2022/06/25 03:57:18;;;;;;;4.40;4.00;;;;;;;22.56;53.21;98164.26;432321;1271;108727;-43
2022/06/25 04:07:22;;;;;;;8.10;4.30;;;;;;;24.55;51.19;98168.60;432598;1270;98041;-43
2022/06/25 04:17:26;;;;;;;5.60;4.30;;;;;;;25.73;49.07;98163.48;432572;1270;97893;-46
2022/06/25 04:37:52;;;;;;;4.60;4.00;;;;;;;28.13;46.20;98189.27;432606;1270;97932;-44
2022/06/25 04:47:59;;;;;;;3.80;3.50;;;;;;;29.02;44.41;98210.91;432701;1270;98076;-45
2022/06/25 04:58:03;;;;;;;8.10;4.20;;;;;;;28.94;43.21;98220.16;432559;1271;108934;-44
2022/06/25 05:08:07;;;;;;;9.10;4.00;;;;;;;28.46;43.13;98235.10;432998;1268;98120;-42
2022/06/25 05:28:17;;;;;;;5.50;4.20;;;;;;;25.33;45.46;98265.79;432796;1270;108792;-41
2022/06/25 05:38:22;;;;;;;6.40;4.60;;;;;;;25.62;46.34;98261.59;432870;1270;98588;-45
2022/06/25 05:48:26;;;;;;;6.70;4.10;;;;;;;26.29;44.82;98259.09;432531;1271;109273;-44
2022/06/25 05:58:29;;;;;;;4.90;4.10;;;;;;;26.96;43.82;98257.52;432869;1270;97910;-43
2022/06/25 06:08:33;;;;;;;6.60;3.80;;;;;;;27.40;42.72;98260.04;432950;1270;111159;-44
2022/06/25 06:18:37;;;;;;;4.70;4.00;;;;;;;27.24;41.99;98266.61;432962;1269;97912;-42
2022/06/25 06:28:41;;;;;;;6.50;4.30;;;;;;;26.77;41.93;98272.59;432761;1269;97900;-45
2022/06/25 06:38:45;;;;;;;4.50;3.70;;;;;;;26.79;42.65;98276.35;432986;1270;111057;-43
2022/06/25 06:48:48;;;;;;;11.60;4.40;;;;;;;27.67;42.48;98281.83;432690;1270;98021;-43
2022/06/25 06:58:52;;;;;;;5.40;4.00;;;;;;;28.34;41.36;98279.30;432717;1270;98137;-43
2022/06/25 07:08:55;;;;;;;6.10;3.90;;;;;;;28.61;40.21;98281.36;432970;1270;111059;-45
2022/06/25 07:19:02;;;;;;;6.50;4.00;;;;;;;28.35;39.79;98282.38;432736;1270;108979;-44
2022/06/25 07:29:06;;;;;;;4.90;3.30;;;;;;;28.10;38.97;98287.38;432888;1270;97907;-45
2022/06/25 07:39:09;;;;;;;7.40;3.90;;;;;;;28.70;39.68;98277.40;432864;1269;110370;-43
2022/06/25 07:49:14;;;;;;;9.80;5.10;;;;;;;29.26;39.02;98282.45;432842;1270;97984;-44
2022/06/25 07:59:18;;;;;;;10.70;5.50;;;;;;;29.52;38.76;98284.48;432627;1270;97942;-44
2022/06/25 08:09:22;;;;;;;10.50;5.70;;;;;;;29.46;38.51;98286.55;432758;1270;110723;-45
2022/06/25 08:19:26;;;;;;;9.80;5.60;;;;;;;29.39;38.54;98287.97;432881;1270;97959;-43
2022/06/25 08:39:34;;;;;;;8.80;5.50;;;;;;;29.06;38.11;98287.81;433086;1270;111065;-43
2022/06/25 08:49:39;;;;;;;8.40;5.30;;;;;;;29.34;38.02;98291.27;432886;1270;97897;-43
2022/06/25 08:59:44;;;;;;;12.90;4.60;;;;;;;29.81;37.10;98294.21;432868;1270;97938;-46
2022/06/25 09:09:49;;;;;;;;;;;;;;;30.28;37.52;98293.80;432817;1270;111400;-42
2022/06/25 09:29:56;;;;;;;4.30;3.10;;;;;;;30.78;35.95;98297.29;432870;1269;97794;-45
2022/06/25 09:40:00;;;;;;;7.20;3.80;;;;;;;30.92;36.04;98297.94;432923;1269;108431;-47
2022/06/25 09:50:11;;;;;;;11.00;3.70;;;;;;;30.41;36.13;98301.16;433013;1270;97922;-44
2022/06/25 10:00:17;;;;;;;5.60;3.00;;;;;;;30.09;36.16;98300.28;433024;1270;111780;-43
2022/06/25 10:10:21;;;;;;;4.80;3.80;;;;;;;29.33;36.65;98303.18;432825;1270;107800;-44
2022/06/25 10:30:46;;;;;;;5.80;3.80;;;;;;;29.13;37.52;98301.80;432785;1270;111137;-47
2022/06/25 10:40:53;;;;;;;5.30;3.30;;;;;;;29.02;37.51;98297.08;432951;1269;108817;-43
2022/06/25 10:50:56;;;;;;;4.90;3.60;;;;;;;28.79;37.82;98296.77;432322;1271;97948;-45
2022/06/25 11:01:01;;;;;;;2.40;2.20;;;;;;;28.57;38.10;98290.99;433018;1269;97903;-45
2022/06/25 11:11:06;;;;;;;3.30;2.40;;;;;;;29.27;38.06;98282.29;432779;1270;108818;-45
2022/06/25 11:21:10;;;;;;;2.80;2.20;;;;;;;29.55;37.12;98270.76;432978;1269;97908;-44
2022/06/25 11:31:15;;;;;;;5.50;2.80;;;;;;;29.31;35.12;98272.65;432872;1270;108770;-42
2022/06/25 11:41:23;;;;;;;2.30;2.10;;;;;;;28.95;35.35;98274.67;433057;1270;97918;-43
2022/06/25 11:51:27;;;;;;;2.30;2.20;;;;;;;28.67;35.40;98276.52;432986;1270;109078;-42
2022/06/25 12:01:31;;;;;;;3.10;2.10;;;;;;;28.79;35.20;98273.27;432956;1270;97567;-42
2022/06/25 12:11:35;;;;;;;4.50;3.00;;;;;;;28.71;35.10;98278.63;432679;1270;97913;-42
2022/06/25 12:21:39;;;;;;;4.10;2.60;;;;;;;28.40;35.52;98272.36;432866;1270;111149;-42
2022/06/25 12:31:44;;;;;;;3.20;2.80;;;;;;;28.71;35.47;98270.30;432874;1270;98006;-47
2022/06/25 12:51:51;;;;;;;5.10;3.00;;;;;;;29.12;35.70;98262.48;432818;1270;111061;-44
2022/06/25 13:01:54;;;;;;;3.20;3.00;;;;;;;28.86;35.37;98263.22;432845;1270;108570;-44
2022/06/25 13:11:58;;;;;;;5.90;3.20;;;;;;;28.36;35.27;98261.96;432810;1270;97930;-42
2022/06/25 13:22:04;;;;;;;2.50;2.30;;;;;;;28.50;35.57;98260.14;432865;1270;108944;-45
2022/06/25 13:32:07;;;;;;;3.80;2.60;;;;;;;29.07;35.34;98259.21;432802;1270;96681;-43
2022/06/25 13:42:11;;;;;;;2.40;2.20;;;;;;;29.25;34.14;98268.73;432771;1270;111198;-41
2022/06/25 13:52:15;;;;;;;3.40;2.60;;;;;;;29.36;33.95;98262.77;432425;1270;367578;-44
2022/06/25 14:02:19;;;;;;;2.50;2.30;;;;;;;29.36;32.96;98263.40;432986;1270;97913;-41
2022/06/25 14:12:23;;;;;;;2.90;2.20;;;;;;;29.38;32.89;98259.32;432839;1269;97968;-46
2022/06/25 14:22:26;;;;;;;3.10;2.50;;;;;;;29.40;32.49;98251.33;432756;1270;108758;-43
2022/06/25 14:32:30;;;;;;;5.70;1.90;;;;;;;29.31;32.27;98256.94;432905;1270;97481;-44
2022/06/25 14:42:34;;;;;;;4.10;1.90;;;;;;;29.28;31.95;98257.41;432714;1270;97984;-44
2022/06/25 14:52:38;;;;;;;6.50;2.30;;;;;;;29.28;31.57;98239.45;432657;1270;109100;-43
2022/06/25 15:02:45;;;;;;;2.40;2.00;;;;;;;29.27;31.15;98239.36;433132;1270;96779;-45
2022/06/25 15:22:57;;;;;;;4.00;2.50;;;;;;;29.21;31.74;98231.08;432826;1269;97933;-44
2022/06/25 15:33:01;;;;;;;3.20;2.40;;;;;;;29.21;32.08;98233.11;432906;1270;110665;-44
2022/06/25 15:43:05;;;;;;;5.10;2.50;;;;;;;29.06;32.17;98233.60;432895;1270;109026;-42
2022/06/25 15:53:08;;;;;;;3.70;2.90;;;;;;;29.00;32.34;98231.09;432931;1270;97910;-43
2022/06/25 16:03:12;;;;;;;3.60;3.30;;;;;;;29.02;32.20;98229.65;432916;1271;97920;-44
2022/06/25 16:13:16;;;;;;;3.10;2.80;;;;;;;28.99;32.39;98233.26;432744;1270;108960;-43
2022/06/25 16:23:20;;;;;;;5.50;2.70;;;;;;;28.88;32.38;98227.36;432682;1270;97993;-41
2022/06/25 16:33:38;;;;;;;4.30;2.90;;;;;;;28.71;32.12;98231.13;432709;1270;97539;-42
2022/06/25 16:54:07;;;;;;;3.30;2.70;;;;;;;28.37;33.54;98243.02;432551;1271;97952;-42
2022/06/25 17:04:09;;;;;;;;;;;;;;;28.32;33.75;98247.71;432449;1271;111023;-43
2022/06/25 17:14:13;;;;;;;3.80;2.80;;;;;;;28.21;34.11;98250.96;432642;1271;108848;-46
2022/06/25 17:24:17;;;;;;;6.60;3.00;;;;;;;27.99;34.60;98260.55;432738;1271;97958;-41
2022/06/25 17:34:20;;;;;;;3.10;2.80;;;;;;;27.78;34.90;98266.44;432593;1274;97916;-42
2022/06/25 17:44:24;;;;;;;8.70;3.50;;;;;;;27.64;35.50;98268.33;432689;1271;108343;-43
2022/06/25 17:54:27;;;;;;;5.00;3.10;;;;;;;27.44;36.15;98272.48;432479;1269;97913;-43
2022/06/25 18:04:31;;;;;;;5.50;4.40;;;;;;;27.13;36.74;98281.44;432845;1270;98703;-43
2022/06/25 18:24:39;;;;;;;6.20;4.40;;;;;;;26.43;38.54;98298.39;432833;1270;97517;-42
2022/06/25 18:34:42;;;;;;;5.80;4.60;;;;;;;25.99;39.09;98301.14;432470;1270;97945;-44
2022/06/25 18:44:46;;;;;;;13.80;4.80;;;;;;;25.62;40.13;98312.44;432553;1270;108100;-42
2022/06/25 18:54:50;;;;;;;7.80;4.50;;;;;;;25.16;40.85;98319.73;432754;1269;97935;-42
2022/06/25 19:04:54;;;;;;;11.20;4.80;;;;;;;24.70;41.15;98331.17;432517;1270;98038;-44
2022/06/25 19:14:57;;;;;;;8.50;5.40;;;;;;;24.34;42.00;98340.29;432774;1270;109182;-42
2022/06/25 19:25:01;;;;;;;10.20;5.50;;;;;;;24.08;42.44;98356.89;432652;1270;97949;-42
2022/06/25 19:35:09;;;;;;;10.30;6.00;;;;;;;23.70;43.04;98364.31;432548;1270;97917;-42
2022/06/25 19:45:11;;;;;;;6.30;5.60;;;;;;;23.23;44.28;98366.66;432608;1270;108804;-44
2022/06/25 19:55:15;;;;;;;6.40;5.50;;;;;;;22.81;45.17;98367.48;432426;1270;97979;-42
2022/06/25 20:05:19;;;;;;;6.90;5.30;;;;;;;22.36;46.20;98373.84;432533;1269;98009;-40
2022/06/25 20:15:23;;;;;;;6.80;6.10;;;;;;;21.97;47.01;98383.40;432439;1270;108803;-41
2022/06/25 20:25:27;;;;;;;7.00;6.20;;;;;;;21.67;47.69;98389.29;432704;1270;97897;-43
2022/06/25 20:35:32;;;;;;;8.20;6.50;;;;;;;21.39;48.58;98386.76;432606;1270;96786;-43
2022/06/25 20:45:36;;;;;;;11.90;7.50;;;;;;;21.07;49.41;98388.83;432580;1270;108782;-41
2022/06/25 20:55:40;;;;;;;17.90;10.90;;;;;;;20.76;50.19;98394.61;432702;1270;97635;-42
2022/06/25 21:16:06;;;;;;;15.20;12.00;;;;;;;20.42;51.74;98389.94;432407;1271;98213;-43
2022/06/25 21:26:10;;;;;;;14.50;10.10;;;;;;;20.21;52.44;98399.08;432599;1271;111204;-42
2022/06/25 21:36:13;;;;;;;8.00;7.10;;;;;;;20.09;52.89;98400.87;432380;1270;97957;-42
2022/06/25 21:46:17;;;;;;;11.30;7.70;;;;;;;20.33;52.60;98392.25;432619;1270;98003;-43
2022/06/25 22:06:25;;;;;;;9.90;7.50;;;;;;;20.84;51.66;98389.02;432678;1270;108987;-46
2022/06/25 22:16:29;;;;;;;14.40;7.70;;;;;;;20.93;51.50;98392.59;432828;1270;97942;-42
2022/06/25 22:26:34;;;;;;;10.50;7.60;;;;;;;21.00;51.48;98394.83;432568;1267;97926;-42
2022/06/25 22:36:38;;;;;;;8.30;7.50;;;;;;;20.96;51.30;98394.83;432516;1269;107342;-43
2022/06/25 22:46:42;;;;;;;11.80;7.90;;;;;;;20.94;51.20;98398.10;432751;1270;97948;-44
2022/06/25 22:56:46;;;;;;;9.40;7.40;;;;;;;20.96;51.02;98397.94;432765;1270;96677;-42
2022/06/25 23:06:51;;;;;;;8.50;6.70;;;;;;;20.97;51.07;98403.25;432662;1270;107833;-42
2022/06/25 23:16:54;;;;;;;8.20;6.20;;;;;;;20.94;50.92;98402.51;432565;1270;98025;-42
2022/06/25 23:26:58;;;;;;;9.70;7.50;;;;;;;20.82;51.04;98412.55;432562;1270;97897;-42
2022/06/25 23:37:02;;;;;;;8.60;7.00;;;;;;;20.72;50.91;98411.94;432791;1270;108880;-42
2022/06/25 23:47:05;;;;;;;9.40;6.90;;;;;;;20.65;51.07;98416.07;432642;1270;97947;-44
2022/06/25 23:57:08;;;;;;;9.10;6.40;;;;;;;20.47;51.37;98420.52;432900;1270;98069;-43
